Time;durP1;ratioP1;P1;durP2;ratioP2;P2;SDS_P1;SDS_P2;PMS_P1;PMS_P2;Temp;Humidity;BMP_temperature;BMP_pressure;BME280_temperature;BME280_humidity;BME280_pressure;Samples;Min_cycle;Max_cycle;Signal;HPM_P1;HPM_P2
2021/08/01 00:00:50;;;;;;;16.40;13.57;;;;;;;25.89;60.32;99810.97;5087486;28;20517;-22
2021/08/01 00:03:15;;;;;;;18.45;13.65;;;;;;;26.12;59.66;99813.47;5087782;28;20031;-22
2021/08/01 00:05:45;;;;;;;19.02;14.52;;;;;;;25.68;60.40;99786.28;5087453;28;20046;-22
2021/08/01 00:08:10;;;;;;;20.25;13.93;;;;;;;25.34;61.90;99806.31;5069305;28;20044;-22
2021/08/01 00:10:35;;;;;;;24.30;14.32;;;;;;;25.31;62.59;99801.50;5087470;28;20035;-22
2021/08/01 00:13:01;;;;;;;17.48;14.10;;;;;;;25.35;62.15;99800.50;5087078;28;20395;-22
2021/08/01 00:15:27;;;;;;;20.42;14.65;;;;;;;25.24;62.41;99789.13;5069342;28;20096;-22
2021/08/01 00:17:52;;;;;;;19.63;13.43;;;;;;;25.17;63.61;99791.53;5087422;28;20024;-22
2021/08/01 00:20:18;;;;;;;20.40;13.90;;;;;;;25.45;62.42;99785.72;5069185;28;20465;-22
2021/08/01 00:22:43;;;;;;;17.70;13.85;;;;;;;25.56;61.69;99784.25;5087269;28;20040;-22
2021/08/01 00:25:09;;;;;;;17.38;14.13;;;;;;;25.29;63.17;99779.19;5087220;28;20035;-22
2021/08/01 00:27:35;;;;;;;19.10;14.63;;;;;;;24.94;64.76;99766.34;5069226;28;20042;-23
2021/08/01 00:30:05;;;;;;;23.73;15.52;;;;;;;25.26;62.36;99756.06;5086875;28;20055;-23
2021/08/01 00:32:30;;;;;;;23.40;16.85;;;;;;;24.92;63.34;99759.63;5087104;28;20051;-23
2021/08/01 00:34:56;;;;;;;23.80;17.13;;;;;;;25.62;61.50;99763.84;5069599;28;20100;-22
2021/08/01 00:37:21;;;;;;;26.67;18.42;;;;;;;25.74;60.52;99754.13;5087166;28;20089;-22
2021/08/01 00:39:47;;;;;;;25.52;19.00;;;;;;;25.82;60.18;99764.22;5090744;28;20035;-22
2021/08/01 00:42:12;;;;;;;24.00;18.83;;;;;;;26.15;59.65;99761.66;5073558;28;20120;-22
2021/08/01 00:44:38;;;;;;;24.65;19.13;;;;;;;26.17;59.65;99762.13;5091284;28;20078;-22
2021/08/01 00:47:04;;;;;;;21.90;18.42;;;;;;;26.13;59.21;99744.00;5090945;28;20042;-22
2021/08/01 00:49:29;;;;;;;22.45;18.17;;;;;;;26.24;59.27;99772.56;5056274;28;20380;-22
2021/08/01 00:51:55;;;;;;;24.63;17.70;;;;;;;26.12;59.97;99772.47;5090766;28;20419;-22
2021/08/01 00:54:25;;;;;;;23.33;17.05;;;;;;;25.65;61.56;99774.09;5091097;28;20078;-22
2021/08/01 00:56:50;;;;;;;22.52;16.10;;;;;;;25.42;62.08;99767.28;5073438;28;20123;-22
2021/08/01 00:59:16;;;;;;;22.00;15.63;;;;;;;25.02;63.75;99767.47;5090522;28;20039;-22
2021/08/01 01:02:09;;;;;;;21.38;16.45;;;;;;;25.57;61.70;99761.28;5090859;28;20024;-22
2021/08/01 01:05:04;;;;;;;19.98;15.85;;;;;;;25.04;63.49;99767.97;5080231;28;20071;-22
2021/08/01 01:08:08;;;;;;;17.70;14.27;;;;;;;25.01;63.39;99766.69;5090918;28;20020;-22
2021/08/01 01:10:43;;;;;;;20.90;15.00;;;;;;;25.11;63.12;99760.09;5077386;28;20047;-22
2021/08/01 01:13:26;;;;;;;18.75;13.80;;;;;;;25.05;63.37;99762.19;5055713;28;20020;-22
2021/08/01 01:15:53;;;;;;;16.35;14.60;;;;;;;25.00;63.60;99753.34;5090517;28;20032;-22
2021/08/01 01:18:27;;;;;;;18.17;14.88;;;;;;;24.95;63.11;99734.44;5072571;28;20028;-22
2021/08/01 01:20:57;;;;;;;21.90;14.55;;;;;;;25.70;60.85;99742.25;5072368;28;20117;-22
2021/08/01 01:23:36;;;;;;;18.27;13.68;;;;;;;25.95;60.15;99746.03;5072925;28;20403;-22
2021/08/01 01:26:10;;;;;;;16.48;13.45;;;;;;;26.11;59.50;99741.59;5072205;28;20039;-22
2021/08/01 01:28:39;;;;;;;19.73;13.77;;;;;;;25.92;59.78;99755.69;5056105;28;20056;-22
2021/08/01 01:31:13;;;;;;;18.85;12.88;;;;;;;25.57;60.78;99750.34;5090207;28;20479;-22
2021/08/01 01:33:39;;;;;;;20.25;14.20;;;;;;;25.40;61.16;99744.97;5072805;28;20032;-22
2021/08/01 01:36:05;;;;;;;18.77;14.40;;;;;;;24.96;62.38;99744.22;5055530;28;20028;-22
2021/08/01 01:38:30;;;;;;;16.58;13.52;;;;;;;25.12;62.20;99733.59;5055359;28;20035;-22
2021/08/01 01:40:56;;;;;;;19.00;13.80;;;;;;;25.14;62.13;99736.81;5072038;28;20043;-22
2021/08/01 01:43:25;;;;;;;21.63;13.38;;;;;;;25.23;61.29;99727.50;5071953;28;20036;-22
2021/08/01 01:45:51;;;;;;;21.02;15.25;;;;;;;25.26;61.24;99735.03;5055420;28;20035;-23
2021/08/01 01:48:17;;;;;;;19.52;14.20;;;;;;;25.17;61.62;99728.78;5071805;28;20032;-22
2021/08/01 01:50:42;;;;;;;18.52;14.40;;;;;;;24.82;62.46;99737.00;5054655;28;20032;-22
2021/08/01 01:53:08;;;;;;;19.02;13.98;;;;;;;24.33;64.60;99725.41;5089740;28;20046;-22
2021/08/01 01:55:33;;;;;;;16.88;13.70;;;;;;;24.35;64.29;99734.06;5071918;28;20032;-22
2021/08/01 01:57:58;;;;;;;17.58;14.82;;;;;;;24.04;65.36;99734.19;5054995;28;20082;-23
2021/08/01 02:00:24;;;;;;;21.67;16.45;;;;;;;23.98;65.72;99741.72;5055135;28;20032;-22
2021/08/01 02:02:50;;;;;;;19.60;16.52;;;;;;;24.29;64.86;99729.91;5089554;28;20028;-22
2021/08/01 02:05:15;;;;;;;22.35;17.25;;;;;;;24.70;62.94;99734.13;5089612;28;20149;-22
2021/08/01 02:07:41;;;;;;;21.98;17.35;;;;;;;24.86;62.69;99745.34;5089646;28;20040;-22
2021/08/01 02:10:22;;;;;;;25.23;19.80;;;;;;;24.91;62.55;99761.56;5071394;28;20020;-22
2021/08/01 02:12:51;;;;;;;23.10;19.23;;;;;;;24.51;63.85;99747.28;5089455;28;20145;-22
2021/08/01 02:15:21;;;;;;;22.63;20.23;;;;;;;24.12;65.91;99751.69;5054378;28;20043;-22
2021/08/01 02:17:53;;;;;;;29.08;21.02;;;;;;;24.18;65.15;99750.41;5071664;28;20070;-22
2021/08/01 02:20:22;;;;;;;32.63;25.35;;;;;;;23.60;67.02;99735.94;5089505;28;20016;-22
2021/08/01 02:22:48;;;;;;;88.15;47.17;;;;;;;23.02;69.76;99756.75;5054640;28;20475;-22
2021/08/01 02:25:13;;;;;;;104.68;54.13;;;;;;;23.05;69.39;99748.00;5054268;28;20043;-22
2021/08/01 02:27:38;;;;;;;86.63;47.13;;;;;;;23.35;68.53;99759.19;5071475;28;20050;-22
2021/08/01 02:30:04;;;;;;;74.28;43.10;;;;;;;23.53;67.65;99738.31;5054292;28;20523;-22
2021/08/01 02:32:30;;;;;;;45.17;28.88;;;;;;;23.99;65.89;99754.22;5088876;28;20035;-22
2021/08/01 02:34:56;;;;;;;28.50;21.77;;;;;;;23.84;66.63;99766.34;5054534;28;20040;-22
2021/08/01 02:37:21;;;;;;;28.42;20.58;;;;;;;24.06;65.62;99760.00;5070814;28;20055;-22
2021/08/01 02:39:47;;;;;;;28.30;21.13;;;;;;;24.11;65.66;99774.59;5070915;28;20035;-22
2021/08/01 02:42:12;;;;;;;33.03;24.40;;;;;;;24.27;64.86;99771.13;5070620;28;20039;-22
2021/08/01 02:44:38;;;;;;;32.65;23.38;;;;;;;23.52;67.55;99764.75;5054592;28;20507;-22
2021/08/01 02:47:08;;;;;;;33.67;26.70;;;;;;;23.19;69.06;99769.66;5070703;28;20093;-22
2021/08/01 02:49:39;;;;;;;31.75;26.05;;;;;;;22.84;70.69;99753.06;5054208;28;20039;-22
2021/08/01 02:52:05;;;;;;;35.15;25.90;;;;;;;23.09;70.15;99764.47;5071047;28;20173;-22
2021/08/01 02:54:31;;;;;;;32.22;24.02;;;;;;;22.97;70.92;99773.97;5054398;28;20043;-22
2021/08/01 02:56:59;;;;;;;29.88;20.58;;;;;;;23.17;69.21;99761.00;5088700;28;20028;-22
2021/08/01 02:59:24;;;;;;;29.05;20.80;;;;;;;23.51;68.61;99765.03;5088795;28;20024;-22
2021/08/01 03:01:54;;;;;;;26.08;19.98;;;;;;;23.25;68.45;99758.34;5069884;28;20040;-22
2021/08/01 03:04:20;;;;;;;27.50;20.48;;;;;;;23.42;68.41;99767.72;5055296;28;20620;-22
2021/08/01 03:06:45;;;;;;;26.48;20.27;;;;;;;23.56;67.81;99767.63;5054037;28;20040;-22
2021/08/01 03:09:11;;;;;;;26.33;20.77;;;;;;;23.63;68.01;99768.78;5070214;28;20377;-22
2021/08/01 03:11:36;;;;;;;27.83;20.38;;;;;;;23.44;68.02;99765.50;5070294;28;20085;-22
2021/08/01 03:14:02;;;;;;;29.00;22.20;;;;;;;23.03;70.18;99780.94;5070099;28;20027;-22
2021/08/01 03:16:27;;;;;;;25.98;21.55;;;;;;;22.92;70.06;99770.56;5088585;28;20024;-22
2021/08/01 03:18:53;;;;;;;27.40;23.48;;;;;;;22.75;71.03;99777.47;5088225;28;20085;-22
2021/08/01 03:21:18;;;;;;;30.30;22.95;;;;;;;22.86;70.60;99773.41;5087970;28;20032;-22
2021/08/01 03:23:44;;;;;;;28.38;22.58;;;;;;;23.05;70.04;99769.75;5088167;28;20028;-23
2021/08/01 03:26:09;;;;;;;29.60;21.88;;;;;;;23.20;69.03;99776.72;5069825;28;20064;-22
2021/08/01 03:28:35;;;;;;;25.25;22.30;;;;;;;23.35;68.29;99761.91;5087716;28;20086;-23
2021/08/01 03:31:00;;;;;;;27.25;21.60;;;;;;;23.14;69.55;99784.19;5088005;28;20495;-22
2021/08/01 03:33:26;;;;;;;28.60;22.13;;;;;;;23.18;69.39;99774.28;5053111;28;20055;-22
2021/08/01 03:35:51;;;;;;;27.58;22.00;;;;;;;23.72;67.06;99781.63;5087817;28;20035;-22
2021/08/01 03:38:17;;;;;;;26.75;21.60;;;;;;;23.55;67.22;99785.88;5088204;28;20545;-22
2021/08/01 03:40:42;;;;;;;29.42;22.85;;;;;;;23.93;65.93;99777.28;5088119;28;20039;-22
2021/08/01 03:43:08;;;;;;;32.40;22.40;;;;;;;24.00;65.53;99783.03;5069496;28;20034;-22
2021/08/01 03:45:33;;;;;;;27.13;22.98;;;;;;;24.18;65.44;99785.84;5087995;28;20024;-22
2021/08/01 03:47:59;;;;;;;29.33;22.33;;;;;;;24.24;65.13;99785.38;5087987;28;20036;-22
2021/08/01 03:50:24;;;;;;;28.38;23.13;;;;;;;24.45;64.76;99793.72;5087801;28;20028;-22
2021/08/01 03:52:50;;;;;;;29.48;24.77;;;;;;;24.63;63.97;99786.41;5087671;28;20035;-22
2021/08/01 03:55:15;;;;;;;29.05;23.52;;;;;;;24.37;65.33;99797.25;5087408;28;20032;-22
2021/08/01 03:57:41;;;;;;;28.55;23.38;;;;;;;24.80;63.90;99801.97;5087633;28;20476;-22
2021/08/01 04:00:07;;;;;;;26.23;22.77;;;;;;;24.47;64.77;99799.66;5069441;28;20392;-23
2021/08/01 04:02:37;;;;;;;30.65;22.10;;;;;;;23.75;67.66;99797.34;5087343;28;20032;-22
2021/08/01 04:05:04;;;;;;;31.10;22.92;;;;;;;23.96;66.76;99787.53;5052716;28;20119;-22
2021/08/01 04:07:30;;;;;;;27.38;24.42;;;;;;;23.67;68.20;99785.31;5087499;28;20032;-22
2021/08/01 04:09:55;;;;;;;29.67;24.23;;;;;;;23.43;69.93;99781.00;5087242;28;20035;-22
2021/08/01 04:12:22;;;;;;;30.05;25.52;;;;;;;23.04;71.30;99760.75;5069061;28;20039;-22
2021/08/01 04:14:47;;;;;;;41.78;28.95;;;;;;;23.17;71.82;99778.16;5069389;28;20028;-22
2021/08/01 04:17:13;;;;;;;42.03;31.00;;;;;;;23.69;69.48;99782.28;5087135;28;20411;-22
2021/08/01 04:19:38;;;;;;;35.80;30.73;;;;;;;24.10;68.56;99789.34;5087648;28;20478;-22
2021/08/01 04:22:04;;;;;;;49.35;37.13;;;;;;;23.67;69.31;99758.88;5087094;28;20028;-23
2021/08/01 04:24:29;;;;;;;46.78;35.88;;;;;;;23.86;68.79;99774.19;5087238;28;20495;-22
2021/08/01 04:26:56;;;;;;;48.72;35.33;;;;;;;24.11;68.13;99788.22;5087315;28;20035;-22
2021/08/01 04:29:21;;;;;;;49.75;38.22;;;;;;;24.26;67.05;99785.06;5087019;28;20059;-22
2021/08/01 04:31:47;;;;;;;51.25;36.15;;;;;;;24.06;68.52;99781.78;5068971;28;20036;-22
2021/08/01 04:34:16;;;;;;;42.80;35.00;;;;;;;24.38;67.09;99795.34;5086964;28;20049;-22
2021/08/01 04:36:41;;;;;;;42.92;33.65;;;;;;;24.23;67.44;99781.06;5087022;28;20059;-22
2021/08/01 04:39:06;;;;;;;40.00;32.88;;;;;;;24.21;67.53;99805.09;5086864;28;20067;-22
2021/08/01 04:41:32;;;;;;;42.75;33.53;;;;;;;24.08;67.52;99788.84;5087259;28;20092;-22
2021/08/01 04:43:57;;;;;;;41.63;32.35;;;;;;;24.47;66.95;99805.13;5086940;28;20035;-22
2021/08/01 04:46:23;;;;;;;38.13;32.42;;;;;;;24.97;65.55;99811.31;5086950;28;20419;-22
2021/08/01 04:48:48;;;;;;;39.55;32.63;;;;;;;24.90;65.51;99816.41;5087003;28;20085;-22
2021/08/01 04:51:14;;;;;;;39.00;33.13;;;;;;;24.33;67.19;99807.19;5086781;28;20073;-22
2021/08/01 04:53:39;;;;;;;39.05;32.50;;;;;;;24.59;66.33;99814.63;5086773;28;20028;-22
2021/08/01 04:56:09;;;;;;;41.55;34.13;;;;;;;24.54;67.57;99812.06;5087010;28;20028;-22
2021/08/01 04:58:34;;;;;;;38.35;33.60;;;;;;;24.69;66.72;99805.34;5086718;28;20038;-22
2021/08/01 05:01:00;;;;;;;40.05;35.45;;;;;;;24.66;66.93;99809.50;5086688;28;20028;-22
2021/08/01 05:03:25;;;;;;;40.13;34.10;;;;;;;24.78;66.47;99812.41;5086894;28;20403;-22
2021/08/01 05:05:51;;;;;;;38.42;33.05;;;;;;;24.63;66.67;99802.78;5069048;28;20062;-22
2021/08/01 05:08:16;;;;;;;41.00;33.45;;;;;;;24.51;66.71;99791.69;5052263;28;20487;-22
2021/08/01 05:10:42;;;;;;;42.22;34.20;;;;;;;25.10;65.95;99813.03;5086874;28;20028;-22
2021/08/01 05:13:07;;;;;;;41.10;32.88;;;;;;;25.19;65.68;99805.66;5086926;28;20032;-22
2021/08/01 05:15:33;;;;;;;36.20;30.30;;;;;;;24.73;66.42;99793.47;5068795;28;20567;-22
2021/08/01 05:17:59;;;;;;;40.63;33.97;;;;;;;24.95;66.58;99808.09;5086843;28;20068;-22
2021/08/01 05:20:24;;;;;;;36.08;31.23;;;;;;;24.81;67.77;99803.59;5087075;28;20400;-22
2021/08/01 05:22:49;;;;;;;37.72;30.23;;;;;;;24.75;66.84;99798.63;5086524;28;20034;-22
2021/08/01 05:25:15;;;;;;;36.65;31.23;;;;;;;24.75;67.20;99804.88;5088474;28;20089;-23
2021/08/01 05:27:40;;;;;;;38.83;29.83;;;;;;;25.01;66.46;99802.16;5090101;28;20547;-22
2021/08/01 05:30:06;;;;;;;35.65;28.17;;;;;;;24.71;66.57;99794.94;5089820;28;20059;-22
2021/08/01 05:32:33;;;;;;;38.35;29.88;;;;;;;24.67;66.96;99783.84;5090131;28;20451;-22
2021/08/01 05:34:59;;;;;;;37.37;30.20;;;;;;;24.88;65.83;99796.84;5089890;28;20105;-23
2021/08/01 05:37:24;;;;;;;34.63;28.27;;;;;;;25.04;66.09;99797.97;5089505;28;20344;-22
2021/08/01 05:39:50;;;;;;;35.85;29.60;;;;;;;25.13;65.41;99804.22;5090223;28;20050;-22
2021/08/01 05:42:16;;;;;;;33.35;26.95;;;;;;;25.27;65.00;99806.78;5090397;28;20035;-22
2021/08/01 05:44:41;;;;;;;31.13;26.10;;;;;;;25.49;63.48;99819.44;5090116;28;20109;-22
2021/08/01 05:47:07;;;;;;;32.58;25.80;;;;;;;25.58;64.04;99816.66;5089829;28;20031;-22
2021/08/01 05:49:33;;;;;;;28.83;23.48;;;;;;;26.03;62.21;99811.56;5089890;28;20051;-22
2021/08/01 05:52:00;;;;;;;30.88;23.00;;;;;;;26.28;60.08;99800.84;5071716;28;20123;-22
2021/08/01 05:54:25;;;;;;;22.80;18.92;;;;;;;26.09;57.15;99812.16;5090244;28;20031;-22
2021/08/01 05:56:51;;;;;;;22.60;17.42;;;;;;;25.83;57.03;99807.59;5089931;28;20032;-22
2021/08/01 05:59:16;;;;;;;25.13;18.20;;;;;;;25.94;58.78;99804.53;5089542;28;20028;-22
2021/08/01 06:01:42;;;;;;;22.98;17.55;;;;;;;25.98;57.88;99789.88;5089963;28;20446;-22
2021/08/01 06:04:07;;;;;;;24.70;18.58;;;;;;;26.41;57.09;99804.44;5089762;28;20031;-22
2021/08/01 06:06:32;;;;;;;26.40;18.83;;;;;;;26.62;57.35;99807.22;5089577;28;20036;-22
2021/08/01 06:08:58;;;;;;;22.20;18.33;;;;;;;26.95;55.09;99806.47;5089675;28;20484;-22
2021/08/01 06:11:23;;;;;;;20.63;15.43;;;;;;;26.31;55.40;99791.16;5089444;28;20032;-22
2021/08/01 06:13:49;;;;;;;24.40;18.02;;;;;;;26.30;56.24;99809.50;5089367;28;20050;-22
2021/08/01 06:16:15;;;;;;;21.85;15.93;;;;;;;26.36;55.82;99813.66;5089870;28;20040;-22
2021/08/01 06:18:41;;;;;;;22.27;17.60;;;;;;;26.51;55.60;99822.41;5089391;28;20457;-22
2021/08/01 06:21:08;;;;;;;23.27;15.75;;;;;;;26.14;56.01;99813.94;5071236;28;20098;-22
2021/08/01 06:23:34;;;;;;;25.13;17.02;;;;;;;26.22;56.54;99810.34;5089534;28;20556;-22
2021/08/01 06:26:00;;;;;;;21.17;17.05;;;;;;;26.92;55.95;99813.44;5089524;28;20044;-22
2021/08/01 06:28:25;;;;;;;19.77;16.33;;;;;;;27.00;54.36;99798.06;5088990;28;20055;-22
2021/08/01 06:30:51;;;;;;;18.92;16.40;;;;;;;26.96;54.20;99797.94;5089457;28;20036;-22
2021/08/01 06:33:17;;;;;;;24.08;17.48;;;;;;;27.05;55.33;99800.59;5089046;28;20119;-22
2021/08/01 06:35:43;;;;;;;22.23;16.52;;;;;;;27.14;54.27;99808.75;5089447;28;20042;-22
2021/08/01 06:38:08;;;;;;;23.20;17.10;;;;;;;27.22;54.45;99803.19;5089193;28;20028;-22
2021/08/01 06:40:33;;;;;;;21.23;16.38;;;;;;;27.30;53.37;99803.44;5070949;28;20494;-22
2021/08/01 06:42:59;;;;;;;21.17;16.40;;;;;;;27.20;53.39;99802.72;5088668;28;20035;-22
2021/08/01 06:45:24;;;;;;;19.02;15.73;;;;;;;27.17;53.46;99803.38;5088935;28;20036;-22
2021/08/01 06:47:50;;;;;;;21.25;16.08;;;;;;;27.51;53.68;99806.94;5089232;28;20480;-22
2021/08/01 06:50:15;;;;;;;20.60;17.73;;;;;;;27.54;54.44;99791.75;5088765;28;20031;-22
2021/08/01 06:52:41;;;;;;;24.20;16.42;;;;;;;27.59;54.06;99795.06;5088743;28;20036;-22
2021/08/01 06:55:07;;;;;;;21.15;16.83;;;;;;;27.97;52.92;99791.28;5088614;28;20047;-22
2021/08/01 06:57:32;;;;;;;20.88;15.98;;;;;;;27.79;51.29;99798.09;5088974;28;20032;-22
2021/08/01 06:59:58;;;;;;;22.25;16.95;;;;;;;27.73;52.32;99786.53;5088654;28;20506;-22
2021/08/01 07:02:23;;;;;;;21.45;17.02;;;;;;;27.92;53.63;99777.00;5088973;28;20020;-22
2021/08/01 07:04:49;;;;;;;19.92;17.23;;;;;;;28.11;52.78;99776.41;5088405;28;20032;-22
2021/08/01 07:07:14;;;;;;;22.50;16.77;;;;;;;27.82;51.05;99762.56;5088140;28;20032;-22
2021/08/01 07:09:40;;;;;;;21.88;16.98;;;;;;;28.08;51.53;99774.38;5088774;28;20032;-22
2021/08/01 07:12:09;;;;;;;27.27;16.42;;;;;;;28.04;51.21;99779.72;5088391;28;20053;-22
2021/08/01 07:14:34;;;;;;;31.65;18.63;;;;;;;28.05;50.91;99768.44;5087484;28;20131;-22
2021/08/01 07:17:01;;;;;;;23.02;16.10;;;;;;;28.03;50.83;99776.19;5085535;28;20192;-22
2021/08/01 07:19:27;;;;;;;23.20;15.88;;;;;;;28.27;50.62;99774.56;5088122;28;20480;-22
2021/08/01 07:21:52;;;;;;;19.77;15.40;;;;;;;28.37;49.63;99774.09;5088664;28;20039;-22
2021/08/01 07:24:18;;;;;;;23.88;16.95;;;;;;;28.64;50.37;99780.00;5088385;28;20388;-22
2021/08/01 07:26:45;;;;;;;20.70;16.00;;;;;;;28.66;48.37;99783.19;5088144;28;20024;-22
2021/08/01 07:29:10;;;;;;;23.25;17.00;;;;;;;28.90;49.60;99778.78;5087494;28;20060;-22
2021/08/01 07:31:36;;;;;;;22.58;16.70;;;;;;;28.93;48.83;99769.81;5088031;28;20031;-22
2021/08/01 07:34:01;;;;;;;20.70;15.27;;;;;;;28.92;48.41;99779.22;5087787;28;20432;-22
2021/08/01 07:36:28;;;;;;;18.70;15.90;;;;;;;29.07;46.99;99783.94;5087807;28;20500;-22
2021/08/01 07:38:54;;;;;;;18.67;14.95;;;;;;;29.28;46.47;99785.69;5087998;28;20034;-22
2021/08/01 07:41:19;;;;;;;21.88;15.30;;;;;;;29.17;45.28;99757.97;5087667;28;20031;-22
2021/08/01 07:43:45;;;;;;;18.30;14.52;;;;;;;29.41;45.94;99774.28;5087980;28;20027;-22
2021/08/01 07:46:10;;;;;;;19.67;14.38;;;;;;;29.52;46.71;99782.81;5088020;28;20028;-22
2021/08/01 07:48:36;;;;;;;20.88;16.08;;;;;;;29.58;46.18;99775.09;5069454;28;20501;-22
2021/08/01 07:51:02;;;;;;;19.70;16.30;;;;;;;29.38;47.09;99763.22;5087526;28;20845;-22
2021/08/01 07:53:27;;;;;;;20.65;15.98;;;;;;;29.75;46.22;99761.06;5087832;28;20406;-22
2021/08/01 07:55:53;;;;;;;19.35;16.25;;;;;;;29.72;46.00;99758.22;5087863;28;20071;-22
2021/08/01 07:58:18;;;;;;;19.08;16.02;;;;;;;29.99;45.20;99760.03;5087766;28;20089;-22
2021/08/01 08:00:44;;;;;;;18.70;16.25;;;;;;;29.90;46.22;99751.19;5087990;28;20416;-22
2021/08/01 08:03:09;;;;;;;21.25;16.33;;;;;;;30.03;46.72;99763.66;5087295;28;20031;-22
2021/08/01 08:05:35;;;;;;;21.75;15.10;;;;;;;30.33;44.84;99754.13;5087521;28;20024;-22
2021/08/01 08:08:00;;;;;;;20.65;16.02;;;;;;;30.83;44.28;99758.72;5069739;28;20415;-22
2021/08/01 08:10:26;;;;;;;19.67;15.25;;;;;;;30.58;44.88;99740.91;5087392;28;20472;-22
2021/08/01 08:12:51;;;;;;;19.95;15.85;;;;;;;30.55;44.49;99752.66;5087216;28;20028;-22
2021/08/01 08:15:17;;;;;;;16.20;14.25;;;;;;;30.61;43.46;99757.50;5086990;28;20047;-22
2021/08/01 08:17:42;;;;;;;20.25;13.75;;;;;;;30.61;43.29;99751.19;5087130;28;20491;-22
2021/08/01 08:20:08;;;;;;;17.95;13.38;;;;;;;30.90;42.53;99752.59;5087527;28;20075;-23
2021/08/01 08:22:34;;;;;;;21.10;14.48;;;;;;;30.97;42.20;99740.91;5087445;28;20553;-22
2021/08/01 08:24:59;;;;;;;21.00;15.18;;;;;;;30.72;42.83;99740.41;5087050;28;20142;-22
2021/08/01 08:27:25;;;;;;;22.42;16.70;;;;;;;30.97;43.51;99719.66;5087220;28;20028;-22
2021/08/01 08:29:51;;;;;;;20.17;14.50;;;;;;;31.40;42.53;99742.47;5087050;28;20055;-22
2021/08/01 08:32:17;;;;;;;18.30;13.63;;;;;;;31.76;41.20;99731.28;5069465;28;20100;-22
2021/08/01 08:34:42;;;;;;;16.40;14.18;;;;;;;31.89;41.77;99735.38;5087109;28;20040;-23
2021/08/01 08:37:09;;;;;;;21.77;14.05;;;;;;;32.58;41.88;99742.69;5086854;28;20028;-22
2021/08/01 08:39:34;;;;;;;16.13;12.57;;;;;;;32.18;38.06;99744.09;5087329;28;20039;-22
2021/08/01 08:42:00;;;;;;;16.65;12.15;;;;;;;32.12;38.96;99737.31;5069287;28;20031;-22
2021/08/01 08:44:26;;;;;;;15.07;12.10;;;;;;;31.76;37.76;99742.28;5086954;28;20020;-22
2021/08/01 08:46:53;;;;;;;18.80;12.93;;;;;;;31.88;39.04;99733.81;5086764;28;20032;-22
2021/08/01 08:49:19;;;;;;;19.35;12.50;;;;;;;32.17;38.56;99737.00;5068872;28;20065;-22
2021/08/01 08:51:45;;;;;;;15.88;12.65;;;;;;;32.56;38.39;99750.56;5068856;28;20100;-22
2021/08/01 08:54:14;;;;;;;18.35;11.40;;;;;;;32.33;36.72;99745.91;5086912;28;20445;-22
2021/08/01 08:56:39;;;;;;;18.00;12.13;;;;;;;32.37;36.95;99743.97;5087131;28;20138;-22
2021/08/01 08:59:06;;;;;;;18.08;12.30;;;;;;;32.66;36.93;99727.81;5052542;28;20400;-22
2021/08/01 09:01:31;;;;;;;17.92;12.48;;;;;;;32.89;37.62;99735.16;5072859;28;20035;-22
2021/08/01 09:03:57;;;;;;;19.92;13.40;;;;;;;32.99;38.24;99746.31;5089928;28;20043;-22
2021/08/01 09:06:22;;;;;;;17.17;12.55;;;;;;;33.42;36.89;99738.44;5071459;28;20524;-23
2021/08/01 09:08:48;;;;;;;16.35;11.13;;;;;;;33.42;36.04;99718.31;5054060;28;20036;-22
2021/08/01 09:11:13;;;;;;;19.65;11.43;;;;;;;33.56;34.12;99723.97;5089622;28;20040;-22
2021/08/01 09:13:45;;;;;;;17.75;11.65;;;;;;;33.44;37.06;99724.25;5089524;28;20016;-22
2021/08/01 09:16:11;;;;;;;16.30;11.98;;;;;;;33.63;36.92;99723.25;5071555;28;20032;-22
2021/08/01 09:18:36;;;;;;;17.55;12.57;;;;;;;33.70;36.44;99717.00;5087885;28;20036;-23
2021/08/01 09:21:01;;;;;;;15.50;11.68;;;;;;;33.96;35.79;99725.06;5089306;28;20039;-23
2021/08/01 09:23:27;;;;;;;16.40;11.70;;;;;;;33.95;36.31;99715.16;5089943;28;20046;-23
2021/08/01 09:26:00;;;;;;;19.70;12.57;;;;;;;34.33;35.99;99720.56;5090164;28;20712;-23
2021/08/01 09:28:26;;;;;;;16.73;12.10;;;;;;;34.38;35.85;99711.84;5086156;28;20059;-23
2021/08/01 09:30:53;;;;;;;16.17;11.52;;;;;;;34.57;34.82;99691.34;5087124;28;20036;-23
2021/08/01 09:33:36;;;;;;;19.55;11.55;;;;;;;34.55;34.38;99696.50;5089484;28;20027;-22
2021/08/01 09:36:12;;;;;;;19.20;11.20;;;;;;;34.85;34.36;99698.97;5088238;28;20401;-23
2021/08/01 09:38:47;;;;;;;17.27;10.63;;;;;;;35.26;32.04;99687.56;5088199;28;20035;-23
2021/08/01 09:41:13;;;;;;;16.00;10.98;;;;;;;35.29;31.72;99692.31;5087056;28;20535;-23
2021/08/01 09:43:45;;;;;;;14.52;10.20;;;;;;;36.13;32.06;99691.81;5089729;28;20111;-23
2021/08/01 09:46:11;;;;;;;20.13;11.73;;;;;;;35.94;31.13;99695.84;5089371;28;20028;-23
2021/08/01 09:48:36;;;;;;;22.48;17.45;;;;;;;35.82;29.49;99701.81;5071392;28;20031;-23
2021/08/01 09:51:03;;;;;;;27.80;22.05;;;;;;;35.58;31.09;99693.09;5070210;28;20388;-23
2021/08/01 09:53:29;;;;;;;34.95;25.70;;;;;;;36.11;31.21;99687.84;5088643;28;20111;-22
2021/08/01 09:56:14;;;;;;;34.15;25.48;;;;;;;36.03;29.74;99695.41;5089426;28;20032;-23
2021/08/01 09:58:40;;;;;;;27.85;21.48;;;;;;;36.45;30.25;99696.44;5087925;28;20024;-22
2021/08/01 10:01:06;;;;;;;32.80;25.52;;;;;;;36.59;28.89;99692.81;5089098;28;20510;-22
2021/08/01 10:03:37;;;;;;;39.20;32.53;;;;;;;36.26;30.05;99678.28;5089046;28;20024;-22
2021/08/01 10:06:09;;;;;;;43.53;34.47;;;;;;;36.33;30.26;99669.94;5089009;28;20024;-22
2021/08/01 10:08:39;;;;;;;43.60;34.90;;;;;;;36.35;30.92;99672.28;5087300;28;20027;-22
2021/08/01 10:11:09;;;;;;;38.63;31.05;;;;;;;36.49;30.52;99679.78;5088190;28;20032;-23
2021/08/01 10:13:36;;;;;;;45.33;32.75;;;;;;;36.42;28.85;99668.72;5088960;28;20037;-22
2021/08/01 10:16:01;;;;;;;45.28;37.50;;;;;;;36.66;28.08;99659.47;5088680;28;20016;-23
2021/08/01 10:18:27;;;;;;;42.78;34.35;;;;;;;37.03;28.55;99660.81;5088705;28;20047;-23
2021/08/01 10:20:52;;;;;;;38.67;34.50;;;;;;;37.22;28.38;99645.59;5070799;28;20526;-23
2021/08/01 10:23:18;;;;;;;42.35;34.95;;;;;;;37.16;28.06;99650.00;5052467;28;20044;-23
2021/08/01 10:25:43;;;;;;;49.30;40.22;;;;;;;37.79;27.10;99655.38;5088722;28;20736;-23
2021/08/01 10:28:09;;;;;;;66.10;56.03;;;;;;;37.90;28.25;99644.13;5088253;28;20040;-23
2021/08/01 10:30:35;;;;;;;52.88;40.63;;;;;;;37.12;26.78;99647.25;5070655;28;20028;-23
2021/08/01 10:33:04;;;;;;;45.58;36.00;;;;;;;36.90;27.21;99640.25;5036273;28;20805;-22
2021/08/01 10:35:30;;;;;;;39.17;30.45;;;;;;;37.25;28.40;99643.97;5071083;28;20032;-22
2021/08/01 10:37:56;;;;;;;45.80;32.47;;;;;;;37.55;27.92;99640.50;5055032;28;20453;-22
2021/08/01 10:40:24;;;;;;;39.85;30.33;;;;;;;37.66;26.57;99634.84;5089027;28;20031;-22
2021/08/01 10:43:10;;;;;;;44.78;35.25;;;;;;;37.33;26.39;99628.78;5089437;28;20479;-22
2021/08/01 10:45:36;;;;;;;47.90;38.13;;;;;;;37.67;27.37;99622.53;5088915;28;20105;-23
2021/08/01 10:48:02;;;;;;;58.80;45.17;;;;;;;38.03;25.74;99630.44;5071076;28;20043;-22
2021/08/01 10:50:28;;;;;;;43.53;34.10;;;;;;;38.01;25.17;99622.53;5070888;28;20274;-23
2021/08/01 10:53:18;;;;;;;39.33;31.40;;;;;;;38.26;25.46;99627.78;5088674;28;20023;-23
2021/08/01 10:56:07;;;;;;;36.38;30.13;;;;;;;38.48;25.16;99610.78;5088839;28;20461;-22
2021/08/01 10:58:36;;;;;;;40.05;28.50;;;;;;;38.63;24.79;99606.59;5075392;28;20074;-22
2021/08/01 11:01:02;;;;;;;37.25;27.92;;;;;;;39.45;24.60;99615.59;5088600;28;20032;-23
2021/08/01 11:03:29;;;;;;;32.90;27.57;;;;;;;38.98;24.09;99610.03;5088862;28;20039;-23
2021/08/01 11:05:54;;;;;;;29.55;22.60;;;;;;;38.49;24.82;99599.19;5088713;28;20280;-23
2021/08/01 11:08:20;;;;;;;33.80;27.80;;;;;;;38.04;25.34;99584.69;5088600;28;20036;-22
2021/08/01 11:10:45;;;;;;;34.07;25.87;;;;;;;37.95;27.71;99588.00;5070274;28;20058;-22
2021/08/01 11:13:29;;;;;;;33.07;24.90;;;;;;;38.66;23.88;99588.22;5086017;28;20024;-22
2021/08/01 11:15:54;;;;;;;27.00;19.45;;;;;;;39.31;23.77;99594.31;5086007;28;20099;-22